createdAt,value
2019-04-07T00:01:34.407Z,13.80
2019-04-07T00:05:35.600Z,13.60
2019-04-07T00:09:37.227Z,13.60
2019-04-07T00:13:38.412Z,12.90
2019-04-07T00:17:39.430Z,12.70
2019-04-07T00:21:40.860Z,12.50
2019-04-07T00:25:42.032Z,13.60
2019-04-07T00:29:42.917Z,13.70
2019-04-07T00:33:43.914Z,13.70
2019-04-07T00:37:44.887Z,13.70
2019-04-07T00:41:46.358Z,13.60
2019-04-07T00:45:47.338Z,13.40
2019-04-07T00:49:48.329Z,13.70
2019-04-07T00:53:49.810Z,13.50
2019-04-07T00:57:50.845Z,13.50
2019-04-07T01:01:51.816Z,13.00
2019-04-07T01:05:53.303Z,12.70
2019-04-07T01:09:54.292Z,11.70
2019-04-07T01:13:55.521Z,12.10
2019-04-07T01:17:56.510Z,12.30
2019-04-07T01:21:57.409Z,12.90
2019-04-07T01:25:58.566Z,13.40
2019-04-07T01:29:59.603Z,13.10
2019-04-07T01:34:00.551Z,13.20
2019-04-07T01:38:01.588Z,13.00
2019-04-07T01:42:10.724Z,13.00
2019-04-07T01:46:17.412Z,12.70
2019-04-07T01:50:21.090Z,12.10
2019-04-07T01:54:27.142Z,12.60
2019-04-07T01:58:32.890Z,12.50
2019-04-07T02:02:47.848Z,12.40
2019-04-07T02:06:59.591Z,12.50
2019-04-07T02:11:18.973Z,12.00
2019-04-07T02:15:30.932Z,11.90
2019-04-07T02:19:37.077Z,12.30
2019-04-07T02:23:49.437Z,12.40
2019-04-07T02:27:52.306Z,12.70
2019-04-07T02:31:58.488Z,12.70
2019-04-07T02:36:17.945Z,12.70
2019-04-07T02:40:15.296Z,12.90
2019-04-07T02:44:35.184Z,13.30
2019-04-07T02:48:41.247Z,13.00
2019-04-07T02:52:45.198Z,12.50
2019-04-07T02:56:52.374Z,12.90
2019-04-07T03:00:55.682Z,13.20
2019-04-07T03:05:05.296Z,12.60
2019-04-07T03:09:09.294Z,12.30
2019-04-07T03:13:12.755Z,12.60
2019-04-07T03:17:18.600Z,12.70
2019-04-07T03:21:31.081Z,12.50
2019-04-07T03:25:37.021Z,11.90
2019-04-07T03:29:40.293Z,11.60
2019-04-07T03:33:45.792Z,11.90
2019-04-07T03:37:48.916Z,12.10
2019-04-07T03:42:04.335Z,12.70
2019-04-07T03:46:22.463Z,13.20
2019-04-07T03:50:28.048Z,13.20
2019-04-07T03:54:37.046Z,13.00
2019-04-07T03:58:59.850Z,12.30
2019-04-07T04:03:02.876Z,12.30
2019-04-07T04:07:20.241Z,12.60
2019-04-07T04:11:14.188Z,12.70
2019-04-07T04:15:20.127Z,12.50
2019-04-07T04:19:21.220Z,12.10
2019-04-07T04:23:22.126Z,12.30
2019-04-07T04:27:23.838Z,12.40
2019-04-07T04:31:25.466Z,12.20
2019-04-07T04:35:26.715Z,12.10
2019-04-07T04:39:27.859Z,11.30
2019-04-07T04:43:28.751Z,11.40
2019-04-07T04:47:29.730Z,11.40
2019-04-07T04:51:35.058Z,11.40
2019-04-07T04:55:33.798Z,11.80
2019-04-07T04:59:35.232Z,12.10
2019-04-07T05:03:36.285Z,12.00
2019-04-07T05:07:49.746Z,12.00
2019-04-07T05:11:40.786Z,11.80
2019-04-07T05:15:41.856Z,11.80
2019-04-07T05:19:42.942Z,11.80
2019-04-07T05:23:44.170Z,11.80
2019-04-07T05:27:45.777Z,11.80
2019-04-07T05:31:46.750Z,12.00
2019-04-07T05:35:48.316Z,12.00
2019-04-07T05:39:49.311Z,11.90
2019-04-07T05:43:50.284Z,11.80
2019-04-07T05:47:53.228Z,12.30
2019-04-07T05:51:54.501Z,12.10
2019-04-07T05:55:56.242Z,12.30
2019-04-07T05:59:57.287Z,12.50
2019-04-07T06:03:58.200Z,12.80
2019-04-07T06:08:06.301Z,13.00
2019-04-07T06:12:05.938Z,13.60
2019-04-07T06:16:05.356Z,14.00
2019-04-07T06:20:12.059Z,14.40
2019-04-07T06:24:10.160Z,14.50
2019-04-07T06:28:12.033Z,14.90
2019-04-07T06:32:14.376Z,14.90
2019-04-07T06:36:18.437Z,15.20
2019-04-07T06:40:20.569Z,15.40
2019-04-07T06:44:22.978Z,15.70
2019-04-07T06:48:24.700Z,16.30
2019-04-07T06:52:40.575Z,16.70
2019-04-07T06:56:50.004Z,16.30
2019-04-07T07:01:05.805Z,15.70
2019-04-07T07:05:14.365Z,15.10
2019-04-07T07:09:20.073Z,15.60
2019-04-07T07:17:47.970Z,17.00
2019-04-07T07:21:51.090Z,15.60
2019-04-07T07:26:00.976Z,16.10
2019-04-07T07:30:03.178Z,15.90
2019-04-07T07:34:04.983Z,15.60
2019-04-07T07:38:07.544Z,17.10
2019-04-07T07:42:09.356Z,17.00
2019-04-07T07:46:10.530Z,15.70
2019-04-07T07:50:12.148Z,15.90
2019-04-07T07:54:14.947Z,16.70
2019-04-07T07:58:16.043Z,16.90
2019-04-07T08:02:19.438Z,17.40
2019-04-07T08:06:20.508Z,16.70
2019-04-07T08:10:25.081Z,16.90
2019-04-07T08:14:24.288Z,16.30
2019-04-07T08:18:25.164Z,17.30
2019-04-07T08:22:32.456Z,16.30
2019-04-07T08:26:28.936Z,16.50
2019-04-07T08:30:30.632Z,16.90
2019-04-07T08:34:33.027Z,17.20
2019-04-07T08:38:34.377Z,18.30
2019-04-07T08:42:35.808Z,17.90
2019-04-07T08:46:41.630Z,16.90
2019-04-07T08:50:39.918Z,17.40
2019-04-07T08:54:41.030Z,17.50
2019-04-07T08:58:42.571Z,17.00
2019-04-07T09:02:44.010Z,16.90
2019-04-07T09:06:45.010Z,17.20
2019-04-07T09:10:50.984Z,16.50
2019-04-07T09:14:52.140Z,17.20
2019-04-07T09:19:03.840Z,16.70
2019-04-07T09:23:12.373Z,17.20
2019-04-07T09:27:27.214Z,17.00
2019-04-07T09:31:36.403Z,17.60
2019-04-07T09:35:58.731Z,17.40
2019-04-07T09:40:03.057Z,17.30
2019-04-07T09:44:08.222Z,17.80
2019-04-07T09:48:13.785Z,17.70
2019-04-07T09:52:29.402Z,17.60
2019-04-07T09:56:33.498Z,17.60
2019-04-07T10:00:46.501Z,18.80
2019-04-07T10:04:52.118Z,17.60
2019-04-07T10:09:01.089Z,18.50
2019-04-07T10:13:06.731Z,17.60
2019-04-07T10:17:18.722Z,18.20
2019-04-07T10:21:21.852Z,18.10
2019-04-07T10:25:34.311Z,18.30
2019-04-07T10:29:40.273Z,18.00
2019-04-07T10:33:58.351Z,19.50
2019-04-07T10:38:04.337Z,18.50
2019-04-07T10:42:13.747Z,19.00
2019-04-07T10:46:20.335Z,19.60
2019-04-07T10:50:26.837Z,17.70
2019-04-07T10:54:32.580Z,17.20
2019-04-07T10:58:53.984Z,18.70
2019-04-07T11:03:00.846Z,20.10
2019-04-07T11:07:04.190Z,19.30
2019-04-07T11:11:13.283Z,20.30
2019-04-07T11:15:28.110Z,20.80
2019-04-07T11:19:31.123Z,21.10
2019-04-07T11:23:52.343Z,21.00
2019-04-07T11:28:04.626Z,20.00
2019-04-07T11:32:20.672Z,20.80
2019-04-07T11:36:26.533Z,20.00
2019-04-07T11:40:49.594Z,19.80
2019-04-07T11:44:51.822Z,21.30
2019-04-07T11:49:13.086Z,21.80
2019-04-07T11:53:22.042Z,20.40
2019-04-07T11:57:24.906Z,20.00
2019-04-07T12:01:28.171Z,20.60
2019-04-07T12:05:40.786Z,20.30
2019-04-07T12:10:00.256Z,20.60
2019-04-07T12:14:06.298Z,19.50
2019-04-07T12:18:21.458Z,20.00
2019-04-07T12:22:28.167Z,21.00
2019-04-07T12:26:42.444Z,21.60
2019-04-07T12:30:48.303Z,21.20
2019-04-07T12:35:08.082Z,22.00
2019-04-07T12:39:16.249Z,20.40
2019-04-07T12:43:24.950Z,20.60
2019-04-07T12:47:34.368Z,22.90
2019-04-07T12:51:55.810Z,23.60
2019-04-07T12:56:09.691Z,24.40
2019-04-07T13:00:25.223Z,24.60
2019-04-07T13:04:28.411Z,23.80
2019-04-07T13:08:49.055Z,24.90
2019-04-07T13:13:10.224Z,25.40
2019-04-07T13:17:13.765Z,26.70
2019-04-07T13:21:26.704Z,26.00
2019-04-07T13:25:31.151Z,24.10
2019-04-07T13:29:51.803Z,24.10
2019-04-07T13:34:10.639Z,23.90
2019-04-07T13:38:19.500Z,25.80
2019-04-07T13:42:23.055Z,27.10
2019-04-07T13:46:35.997Z,26.60
2019-04-07T13:50:46.977Z,26.90
2019-04-07T13:54:52.677Z,27.00
2019-04-07T13:59:09.881Z,25.80
2019-04-07T14:03:14.525Z,24.10
2019-04-07T14:07:18.157Z,22.80
2019-04-07T14:11:53.155Z,23.70
2019-04-07T14:15:43.290Z,24.40
2019-04-07T14:20:03.886Z,25.60
2019-04-07T14:24:19.741Z,24.10
2019-04-07T14:28:35.703Z,23.30
2019-04-07T14:32:51.976Z,19.80
2019-04-07T14:37:12.027Z,22.40
2019-04-07T14:41:26.933Z,19.30
2019-04-07T14:45:32.508Z,18.80
2019-04-07T14:49:38.284Z,18.20
2019-04-07T14:53:46.043Z,17.90
2019-04-07T14:58:06.711Z,17.90
2019-04-07T15:02:08.111Z,17.70
2019-04-07T15:06:09.754Z,17.50
2019-04-07T15:10:17.991Z,17.30
2019-04-07T15:14:19.209Z,18.20
2019-04-07T15:18:21.453Z,18.50
2019-04-07T15:22:25.131Z,18.60
2019-04-07T15:26:25.492Z,19.90
2019-04-07T15:30:26.630Z,19.80
2019-04-07T15:34:29.718Z,19.60
2019-04-07T15:38:31.295Z,19.50
2019-04-07T15:42:40.443Z,19.70
2019-04-07T15:46:36.560Z,19.60
2019-04-07T15:50:38.192Z,19.60
2019-04-07T15:54:40.221Z,18.70
2019-04-07T15:58:41.950Z,18.40
2019-04-07T16:02:43.457Z,17.70
2019-04-07T16:06:48.733Z,18.10
2019-04-07T16:10:48.359Z,18.90
2019-04-07T16:14:50.321Z,18.30
2019-04-07T16:18:52.692Z,19.20
2019-04-07T16:22:53.921Z,19.50
2019-04-07T16:26:54.966Z,19.90
2019-04-07T16:30:56.274Z,19.20
2019-04-07T16:34:57.315Z,18.50
2019-04-07T16:39:00.393Z,18.90
2019-04-07T16:43:09.963Z,18.90
2019-04-07T16:47:04.279Z,18.50
2019-04-07T16:51:06.026Z,18.80
2019-04-07T16:55:27.222Z,17.90
2019-04-07T16:59:28.415Z,18.00
2019-04-07T17:03:29.775Z,18.00
2019-04-07T17:07:30.724Z,18.40
2019-04-07T17:11:32.316Z,18.40
2019-04-07T17:15:37.351Z,18.20
2019-04-07T17:19:37.233Z,17.80
2019-04-07T17:23:38.800Z,17.60
2019-04-07T17:27:42.439Z,18.60
2019-04-07T17:31:44.385Z,18.30
2019-04-07T17:35:46.105Z,19.10
2019-04-07T17:39:49.477Z,18.20
2019-04-07T17:44:13.223Z,18.00
2019-04-07T17:48:23.331Z,17.30
2019-04-07T17:52:27.081Z,17.30
2019-04-07T17:56:36.837Z,17.70
2019-04-07T18:00:41.355Z,17.70
2019-04-07T18:05:01.287Z,17.30
2019-04-07T18:09:23.402Z,17.70
2019-04-07T18:13:44.949Z,18.60
2019-04-07T18:17:56.088Z,17.60
2019-04-07T18:22:06.159Z,18.70
2019-04-07T18:26:26.319Z,19.30
2019-04-07T18:30:31.520Z,20.50
2019-04-07T18:34:50.473Z,21.10
2019-04-07T18:39:05.250Z,21.20
2019-04-07T18:43:13.862Z,21.30
2019-04-07T18:47:24.535Z,21.20
2019-04-07T18:51:30.183Z,21.20
2019-04-07T18:55:38.958Z,21.20
2019-04-07T18:59:47.397Z,21.20
2019-04-07T19:03:56.037Z,21.20
2019-04-07T19:08:02.643Z,21.00
2019-04-07T19:12:14.239Z,20.70
2019-04-07T19:16:21.605Z,20.90
2019-04-07T19:20:26.789Z,20.90
2019-04-07T19:24:35.834Z,20.90
2019-04-07T19:28:38.994Z,21.00
2019-04-07T19:32:41.951Z,20.90
2019-04-07T19:36:47.201Z,20.90
2019-04-07T19:41:06.863Z,20.90
2019-04-07T19:45:26.910Z,20.70
2019-04-07T19:49:30.068Z,20.70
2019-04-07T19:53:43.213Z,20.50
2019-04-07T19:58:02.686Z,20.70
2019-04-07T20:02:22.258Z,20.50
2019-04-07T20:06:27.917Z,20.50
2019-04-07T20:10:36.813Z,20.50
2019-04-07T20:14:55.557Z,20.00
2019-04-07T20:19:06.536Z,20.10
2019-04-07T20:23:29.610Z,20.20
2019-04-07T20:27:40.586Z,20.40
2019-04-07T20:31:53.718Z,20.30
2019-04-07T20:36:06.637Z,19.90
2019-04-07T20:40:26.880Z,19.80
2019-04-07T20:45:00.036Z,20.00
2019-04-07T20:49:10.375Z,20.00
2019-04-07T20:53:17.657Z,20.00
2019-04-07T20:57:23.646Z,19.80
2019-04-07T21:01:22.676Z,19.80
2019-04-07T21:05:27.104Z,19.90
2019-04-07T21:09:36.032Z,19.80
2019-04-07T21:13:41.975Z,19.70
2019-04-07T21:17:45.008Z,19.70
2019-04-07T21:21:50.806Z,19.60
2019-04-07T21:25:55.971Z,19.80
2019-04-07T21:30:04.590Z,19.80
2019-04-07T21:34:10.316Z,18.90
2019-04-07T21:38:19.682Z,18.70
2019-04-07T21:42:27.448Z,18.80
2019-04-07T21:46:47.283Z,18.80
2019-04-07T21:50:56.212Z,19.20
2019-04-07T21:55:02.156Z,18.80
2019-04-07T21:59:21.755Z,19.00
2019-04-07T22:03:36.227Z,19.30
2019-04-07T22:07:46.183Z,19.50
2019-04-07T22:11:47.309Z,19.60
2019-04-07T22:15:54.829Z,19.50
2019-04-07T22:19:51.197Z,19.40
2019-04-07T22:23:52.151Z,19.40
2019-04-07T22:27:55.543Z,19.40
2019-04-07T22:31:57.758Z,19.50
2019-04-07T22:35:59.606Z,19.40
2019-04-07T22:40:02.198Z,19.50
2019-04-07T22:44:03.892Z,19.40
2019-04-07T22:48:08.110Z,19.00
2019-04-07T22:52:07.747Z,18.00
2019-04-07T22:56:09.185Z,17.50
2019-04-07T23:00:13.194Z,18.00
2019-04-07T23:04:14.281Z,17.90
2019-04-07T23:08:15.261Z,17.60
2019-04-07T23:12:16.928Z,18.20
2019-04-07T23:16:18.855Z,18.30
2019-04-07T23:20:21.360Z,18.50
2019-04-07T23:24:22.437Z,18.50
2019-04-07T23:28:23.470Z,18.70
2019-04-07T23:32:25.435Z,18.50
2019-04-07T23:36:26.555Z,18.70
2019-04-07T23:40:28.059Z,18.40
2019-04-07T23:44:29.670Z,18.50
2019-04-07T23:48:30.762Z,18.60
2019-04-07T23:52:31.666Z,18.30
2019-04-07T23:56:33.597Z,18.30
